Time;durP1;ratioP1;P1;durP2;ratioP2;P2;SDS_P1;SDS_P2;PMS_P1;PMS_P2;Temp;Humidity;BMP_temperature;BMP_pressure;BME280_temperature;BME280_humidity;BME280_pressure;Samples;Min_cycle;Max_cycle;Signal;HPM_P1;HPM_P2
2023/07/14 08:15:56;;;;;;;;;21.00;19.50;;;;;;;;5088763;27;13402;-71
2023/07/14 08:18:22;;;;;;;;;15.25;13.50;;;;;;;;5096377;28;8822;-71
2023/07/14 08:20:49;;;;;;;;;16.50;14.50;;;;;;;;5095455;28;8820;-70
2023/07/14 08:23:15;;;;;;;;;15.25;14.00;;;;;;;;5095507;28;8884;-73
2023/07/14 08:25:40;;;;;;;;;16.00;15.00;;;;;;;;5098742;28;9708;-70
2023/07/14 08:28:06;;;;;;;;;16.00;13.67;;;;;;;;5106847;28;9006;-70
2023/07/14 08:30:31;;;;;;;;;15.00;14.00;;;;;;;;5094937;28;8806;-73
2023/07/14 08:32:57;;;;;;;;;16.75;14.50;;;;;;;;5086382;28;8790;-73
2023/07/14 08:35:23;;;;;;;;;15.50;13.25;;;;;;;;5086488;28;8835;-73
2023/07/14 08:37:48;;;;;;;;;15.50;13.00;;;;;;;;5100235;28;8873;-72
2023/07/14 08:40:23;;;;;;;;;15.00;12.50;;;;;;;;5102771;28;8891;-72
2023/07/14 08:43:03;;;;;;;;;16.20;14.00;;;;;;;;5093103;28;8845;-72
2023/07/14 08:45:41;;;;;;;;;15.60;15.20;;;;;;;;5096257;28;8812;-73
2023/07/14 08:48:24;;;;;;;;;14.20;13.60;;;;;;;;5092832;28;8907;-73
2023/07/14 08:50:52;;;;;;;;;17.60;12.40;;;;;;;;5093652;28;8794;-73
2023/07/14 08:53:27;;;;;;;;;16.00;13.00;;;;;;;;5088084;28;8928;-73
2023/07/14 08:55:57;;;;;;;;;14.60;13.20;;;;;;;;5089541;28;8809;-73
2023/07/14 08:58:25;;;;;;;;;15.00;14.80;;;;;;;;5088245;28;8832;-73
2023/07/14 09:00:50;;;;;;;;;14.80;13.40;;;;;;;;5094406;28;8804;-73
2023/07/14 09:03:30;;;;;;;;;12.50;12.00;;;;;;;;5095811;28;8855;-73
2023/07/14 09:05:58;;;;;;;;;15.00;13.60;;;;;;;;5095267;28;8828;-72
2023/07/14 09:08:26;;;;;;;;;15.00;10.60;;;;;;;;5093052;28;8861;-73
2023/07/14 09:10:51;;;;;;;;;17.40;13.80;;;;;;;;5092829;28;8841;-74
2023/07/14 09:13:35;;;;;;;;;11.25;11.25;;;;;;;;5085142;28;8786;-73
2023/07/14 09:16:01;;;;;;;;;16.00;12.00;;;;;;;;5085623;28;8798;-74
2023/07/14 09:18:32;;;;;;;;;15.00;15.00;;;;;;;;5085724;28;8822;-71
2023/07/14 09:21:00;;;;;;;;;14.20;12.80;;;;;;;;5085408;28;10851;-72
2023/07/14 09:23:49;;;;;;;;;14.80;13.40;;;;;;;;5085697;28;8767;-74
2023/07/14 09:26:29;;;;;;;;;16.60;13.60;;;;;;;;5069394;28;8921;-71
2023/07/14 09:28:55;;;;;;;;;13.60;12.00;;;;;;;;5071747;28;8810;-71
2023/07/14 09:31:37;;;;;;;;;17.25;14.25;;;;;;;;5071689;28;8802;-74
2023/07/14 09:34:04;;;;;;;;;17.40;15.60;;;;;;;;5078690;28;9518;-71
2023/07/14 09:36:31;;;;;;;;;17.20;14.60;;;;;;;;5079783;28;8830;-70
2023/07/14 09:38:59;;;;;;;;;13.80;10.80;;;;;;;;5078589;28;8835;-69
2023/07/14 09:41:28;;;;;;;;;14.00;11.00;;;;;;;;5072125;28;8806;-69
2023/07/14 09:43:58;;;;;;;;;15.20;14.20;;;;;;;;5071461;28;8852;-71
2023/07/14 09:46:24;;;;;;;;;15.20;14.40;;;;;;;;5071500;28;8775;-71
2023/07/14 09:48:52;;;;;;;;;16.00;15.00;;;;;;;;5071492;28;8809;-72
2023/07/14 09:51:23;;;;;;;;;15.80;13.60;;;;;;;;5071279;28;9558;-73
2023/07/14 09:53:59;;;;;;;;;17.00;15.40;;;;;;;;5088354;28;8986;-70
2023/07/14 09:56:37;;;;;;;;;14.80;13.40;;;;;;;;5076657;28;8818;-71
2023/07/14 09:59:04;;;;;;;;;19.80;18.40;;;;;;;;5079821;28;9644;-75
2023/07/14 10:01:30;;;;;;;;;16.00;14.20;;;;;;;;5079177;28;8804;-74
2023/07/14 10:03:58;;;;;;;;;15.00;14.00;;;;;;;;5075967;28;8988;-74
2023/07/14 10:06:26;;;;;;;;;19.00;17.40;;;;;;;;5081688;28;8783;-75
2023/07/14 10:08:56;;;;;;;;;14.40;14.00;;;;;;;;5081159;28;8807;-74
2023/07/14 10:11:29;;;;;;;;;14.00;14.00;;;;;;;;5073218;28;8906;-76
2023/07/14 10:14:05;;;;;;;;;15.80;13.40;;;;;;;;5070431;28;8799;-72
2023/07/14 10:16:34;;;;;;;;;14.40;13.40;;;;;;;;5077024;28;8814;-73
2023/07/14 10:19:05;;;;;;;;;20.60;16.80;;;;;;;;5078113;28;8820;-72
2023/07/14 10:21:34;;;;;;;;;15.20;14.20;;;;;;;;5076581;28;8816;-73
2023/07/14 10:24:00;;;;;;;;;17.00;14.60;;;;;;;;5077912;28;8843;-73
2023/07/14 10:26:30;;;;;;;;;13.25;12.50;;;;;;;;5077767;28;8845;-73
2023/07/14 10:28:56;;;;;;;;;13.60;12.00;;;;;;;;5082057;28;9522;-70
2023/07/14 10:31:41;;;;;;;;;17.50;17.50;;;;;;;;5082221;28;8815;-71
2023/07/14 10:34:20;;;;;;;;;15.00;14.80;;;;;;;;5066325;28;9568;-71
2023/07/14 10:36:46;;;;;;;;;14.20;13.40;;;;;;;;5082728;28;8811;-70
2023/07/14 10:39:16;;;;;;;;;15.75;15.25;;;;;;;;5074149;28;8887;-71
2023/07/14 10:41:45;;;;;;;;;16.40;14.00;;;;;;;;5068466;28;8868;-70
2023/07/14 10:44:31;;;;;;;;;15.00;14.00;;;;;;;;5079158;28;8846;-72
2023/07/14 10:46:59;;;;;;;;;13.00;11.20;;;;;;;;5073951;28;8846;-70
2023/07/14 10:49:42;;;;;;;;;14.40;13.00;;;;;;;;5082085;28;8846;-68
2023/07/14 10:52:15;;;;;;;;;15.00;15.00;;;;;;;;5079266;28;8830;-69
2023/07/14 10:54:50;;;;;;;;;12.00;10.75;;;;;;;;5062048;28;8813;-72
2023/07/14 10:57:31;;;;;;;;;15.00;12.25;;;;;;;;5050049;28;9056;-72
2023/07/14 11:00:19;;;;;;;;;16.25;15.00;;;;;;;;5049806;28;8817;-73
2023/07/14 11:02:50;;;;;;;;;13.00;13.00;;;;;;;;5050007;28;8785;-74
2023/07/14 11:05:20;;;;;;;;;17.25;16.25;;;;;;;;5049941;28;8825;-73
2023/07/14 11:07:46;;;;;;;;;16.50;14.50;;;;;;;;5079602;28;8816;-75
2023/07/14 11:10:13;;;;;;;;;14.00;12.33;;;;;;;;5072454;28;8950;-73
2023/07/14 11:12:58;;;;;;;;;14.00;13.00;;;;;;;;5090224;28;8796;-73
2023/07/14 11:15:36;;;;;;;;;16.00;15.00;;;;;;;;5089920;28;8834;-75
2023/07/14 11:18:11;;;;;;;;;12.75;12.00;;;;;;;;5079550;28;8834;-72
2023/07/14 11:20:52;;;;;;;;;14.75;14.00;;;;;;;;5069826;28;8888;-75
2023/07/14 11:23:33;;;;;;;;;12.50;11.25;;;;;;;;5069372;28;8811;-75
2023/07/14 11:26:01;;;;;;;;;11.80;11.40;;;;;;;;5066021;28;8869;-69
2023/07/14 11:28:36;;;;;;;;;12.00;11.40;;;;;;;;5068644;28;8828;-70
2023/07/14 11:31:04;;;;;;;;;10.75;10.25;;;;;;;;5065370;28;8826;-69
2023/07/14 11:33:41;;;;;;;;;14.75;13.00;;;;;;;;5058338;28;9688;-68
2023/07/14 11:36:26;;;;;;;;;12.00;12.00;;;;;;;;5064698;28;8857;-68
2023/07/14 11:39:01;;;;;;;;;12.75;12.00;;;;;;;;5086529;28;8814;-70
2023/07/14 11:41:27;;;;;;;;;14.00;13.75;;;;;;;;5086786;28;9030;-70
2023/07/14 11:43:53;;;;;;;;;12.00;11.00;;;;;;;;5086896;28;8942;-68
2023/07/14 11:46:19;;;;;;;;;14.33;13.33;;;;;;;;5087991;28;9188;-69
2023/07/14 11:48:53;;;;;;;;;10.25;9.25;;;;;;;;5086934;28;11660;-69
2023/07/14 11:51:19;;;;;;;;;15.75;12.25;;;;;;;;5087554;28;8826;-69
2023/07/14 11:54:03;;;;;;;;;12.00;12.00;;;;;;;;5073439;28;8802;-68
2023/07/14 11:56:30;;;;;;;;;12.50;11.00;;;;;;;;5067023;28;8818;-71
2023/07/14 11:59:11;;;;;;;;;13.25;12.50;;;;;;;;5068002;28;8799;-72
2023/07/14 12:01:43;;;;;;;;;14.00;12.25;;;;;;;;5068080;28;8818;-73
2023/07/14 12:04:26;;;;;;;;;12.75;12.75;;;;;;;;5069146;28;9568;-74
2023/07/14 12:06:55;;;;;;;;;11.50;10.25;;;;;;;;5075561;28;8792;-68
2023/07/14 12:09:20;;;;;;;;;16.75;14.25;;;;;;;;5088921;28;8818;-72
2023/07/14 12:11:56;;;;;;;;;13.33;11.33;;;;;;;;5088376;28;8807;-72
2023/07/14 12:14:26;;;;;;;;;11.25;10.75;;;;;;;;5076837;28;8905;-73
2023/07/14 12:16:52;;;;;;;;;10.00;9.25;;;;;;;;5076045;28;8832;-71
2023/07/14 12:19:23;;;;;;;;;10.67;10.00;;;;;;;;5076845;28;8859;-72
2023/07/14 12:22:02;;;;;;;;;14.50;11.00;;;;;;;;5077016;28;8795;-74
2023/07/14 12:24:30;;;;;;;;;7.80;6.60;;;;;;;;5078986;28;8867;-76
2023/07/14 12:27:13;;;;;;;;;10.40;10.20;;;;;;;;5079313;28;8893;-73
2023/07/14 12:29:39;;;;;;;;;9.00;8.60;;;;;;;;5088732;28;9620;-69
2023/07/14 12:32:15;;;;;;;;;10.40;10.00;;;;;;;;5075063;28;8814;-71
2023/07/14 12:34:41;;;;;;;;;7.80;7.80;;;;;;;;5065714;28;8945;-70
2023/07/14 12:37:11;;;;;;;;;9.60;9.60;;;;;;;;5068544;28;8873;-71
2023/07/14 12:39:44;;;;;;;;;8.80;7.00;;;;;;;;5067998;28;9982;-70
2023/07/14 12:42:09;;;;;;;;;8.20;8.20;;;;;;;;5067422;28;8841;-72
2023/07/14 12:44:36;;;;;;;;;10.25;9.00;;;;;;;;5066474;28;8826;-71
2023/07/14 12:47:02;;;;;;;;;9.75;9.75;;;;;;;;5066769;28;8809;-72
2023/07/14 12:49:37;;;;;;;;;12.33;11.00;;;;;;;;5066779;28;8790;-70
2023/07/14 12:52:06;;;;;;;;;13.25;9.75;;;;;;;;5070971;28;8899;-72
2023/07/14 12:54:31;;;;;;;;;11.00;10.25;;;;;;;;5077030;28;8910;-71
2023/07/14 12:56:59;;;;;;;;;9.00;9.00;;;;;;;;5075927;28;9124;-72
2023/07/14 12:59:24;;;;;;;;;11.50;11.50;;;;;;;;5073285;28;8779;-71
2023/07/14 13:01:50;;;;;;;;;8.75;8.75;;;;;;;;5080147;28;8791;-71
2023/07/14 13:04:17;;;;;;;;;11.33;11.00;;;;;;;;5082356;28;8834;-73
2023/07/14 13:06:43;;;;;;;;;10.25;10.00;;;;;;;;5081466;28;8796;-70
2023/07/14 13:09:10;;;;;;;;;10.75;10.50;;;;;;;;5081132;28;8794;-71
2023/07/14 13:11:37;;;;;;;;;11.25;11.00;;;;;;;;5080856;28;8780;-71
2023/07/14 13:14:03;;;;;;;;;12.50;11.25;;;;;;;;5082232;28;8918;-72
2023/07/14 13:16:31;;;;;;;;;12.60;11.20;;;;;;;;5081350;28;8921;-70
2023/07/14 13:18:58;;;;;;;;;9.40;9.20;;;;;;;;5080934;28;8820;-72
2023/07/14 13:21:37;;;;;;;;;10.40;10.40;;;;;;;;5083081;28;8784;-71
2023/07/14 13:24:08;;;;;;;;;11.00;10.25;;;;;;;;5082338;28;10020;-71
2023/07/14 13:26:46;;;;;;;;;11.60;8.00;;;;;;;;5082318;28;8822;-72
2023/07/14 13:29:14;;;;;;;;;10.60;9.00;;;;;;;;5075982;28;8811;-71
2023/07/14 13:31:40;;;;;;;;;11.00;9.40;;;;;;;;5080390;28;8965;-70
2023/07/14 13:34:35;;;;;;;;;8.50;8.50;;;;;;;;5075691;28;8918;-71
2023/07/14 13:37:02;;;;;;;;;11.60;10.80;;;;;;;;5034525;28;8846;-71
2023/07/14 13:39:29;;;;;;;;;11.60;9.80;;;;;;;;5047774;28;8832;-69
2023/07/14 13:41:55;;;;;;;;;10.60;9.60;;;;;;;;5048303;28;8957;-70
2023/07/14 13:44:27;;;;;;;;;9.40;7.40;;;;;;;;5048370;28;9012;-71
2023/07/14 13:46:53;;;;;;;;;11.80;10.60;;;;;;;;5038972;28;8822;-70
2023/07/14 13:49:18;;;;;;;;;7.00;7.00;;;;;;;;5028142;28;8821;-70
2023/07/14 13:51:43;;;;;;;;;11.25;9.00;;;;;;;;5040632;28;8810;-70
2023/07/14 13:54:15;;;;;;;;;11.00;9.00;;;;;;;;5048374;28;9003;-70
2023/07/14 13:56:40;;;;;;;;;9.00;9.00;;;;;;;;5048882;28;8803;-69
2023/07/14 13:59:11;;;;;;;;;15.25;11.00;;;;;;;;5048527;28;8830;-70
2023/07/14 14:01:36;;;;;;;;;8.80;8.60;;;;;;;;5048665;28;9866;-70
2023/07/14 14:04:02;;;;;;;;;11.00;9.00;;;;;;;;5047994;28;8826;-69
